Time,TemperatureF,DewpointF,PressureIn,WindDirection,WindDirectionDegrees,WindSpeedMPH,WindSpeedGustMPH,Humidity,HourlyPrecipIn,Conditions,Clouds,dailyrainin,SolarRadiationWatts/m^2,SoftwareType,DateUTC
2013-07-27 00:22:00,65.0,40.0,-100.00,SE,132,2.0,8.0,40,-99.99,,,0.00,1.000000,,2013-07-27 06:22:00,
2013-07-27 00:33:00,65.0,40.0,-100.00,SE,132,2.0,8.0,40,-99.99,,,0.00,1.000000,,2013-07-27 06:33:00,
2013-07-27 00:43:00,65.0,40.0,-100.00,SE,132,2.0,8.0,40,-99.99,,,0.00,1.000000,,2013-07-27 06:43:00,
2013-07-27 00:52:00,65.0,40.0,-100.00,SE,132,2.0,8.0,40,-99.99,,,0.00,1.000000,,2013-07-27 06:52:00,
2013-07-27 01:22:00,63.0,41.0,-100.00,South,178,2.0,8.0,44,0.00,,,0.00,1.000000,,2013-07-27 07:22:00,
2013-07-27 01:33:00,63.0,41.0,-100.00,South,178,2.0,8.0,44,0.00,,,0.00,1.000000,,2013-07-27 07:33:00,
2013-07-27 01:43:00,63.0,41.0,-100.00,South,178,2.0,8.0,44,0.00,,,0.00,1.000000,,2013-07-27 07:43:00,
2013-07-27 01:52:00,63.0,41.0,-100.00,South,178,2.0,8.0,44,0.00,,,0.00,1.000000,,2013-07-27 07:52:00,
2013-07-27 02:22:00,58.0,41.0,-100.00,WNW,301,0.0,4.0,53,0.00,,,0.00,1.000000,,2013-07-27 08:22:00,
2013-07-27 02:32:00,58.0,41.0,-100.00,WNW,301,0.0,4.0,53,0.00,,,0.00,1.000000,,2013-07-27 08:32:00,
2013-07-27 02:43:00,58.0,41.0,-100.00,WNW,301,0.0,4.0,53,0.00,,,0.00,1.000000,,2013-07-27 08:43:00,
2013-07-27 02:53:00,58.0,41.0,-100.00,WNW,301,0.0,4.0,53,0.00,,,0.00,1.000000,,2013-07-27 08:53:00,
2013-07-27 03:22:00,58.0,42.0,-100.00,WNW,287,2.0,5.0,56,0.00,,,0.00,1.000000,,2013-07-27 09:22:00,
2013-07-27 03:33:00,58.0,42.0,-100.00,WNW,287,2.0,5.0,56,0.00,,,0.00,1.000000,,2013-07-27 09:33:00,
2013-07-27 03:44:00,58.0,42.0,-100.00,WNW,287,2.0,5.0,56,0.00,,,0.00,1.000000,,2013-07-27 09:44:00,
2013-07-27 03:52:00,58.0,42.0,-100.00,WNW,287,2.0,5.0,56,0.00,,,0.00,1.000000,,2013-07-27 09:52:00,
2013-07-27 04:22:00,54.0,41.0,-100.00,NE,51,1.0,5.0,62,0.00,,,0.00,1.000000,,2013-07-27 10:22:00,
2013-07-27 04:32:00,54.0,41.0,-100.00,NE,51,1.0,5.0,62,0.00,,,0.00,1.000000,,2013-07-27 10:32:00,
2013-07-27 04:43:00,54.0,41.0,-100.00,NE,51,1.0,5.0,62,0.00,,,0.00,1.000000,,2013-07-27 10:43:00,
2013-07-27 04:52:00,54.0,41.0,-100.00,NE,51,1.0,5.0,62,0.00,,,0.00,1.000000,,2013-07-27 10:52:00,
2013-07-27 05:22:00,54.0,43.0,-100.00,North,9,0.0,3.0,65,0.00,,,0.00,1.000000,,2013-07-27 11:22:00,
2013-07-27 05:32:00,54.0,43.0,-100.00,North,9,0.0,3.0,65,0.00,,,0.00,1.000000,,2013-07-27 11:32:00,
2013-07-27 05:44:00,54.0,43.0,-100.00,North,9,0.0,3.0,65,0.00,,,0.00,1.000000,,2013-07-27 11:44:00,
2013-07-27 05:52:00,54.0,43.0,-100.00,North,9,0.0,3.0,65,0.00,,,0.00,1.000000,,2013-07-27 11:52:00,
2013-07-27 06:22:00,51.0,42.0,-100.00,East,84,0.0,5.0,71,0.00,,,-99.99,1.000000,,2013-07-27 12:22:00,
2013-07-27 06:33:00,51.0,42.0,-100.00,East,84,0.0,5.0,71,0.00,,,-99.99,1.000000,,2013-07-27 12:33:00,
2013-07-27 06:43:00,51.0,42.0,-100.00,East,84,0.0,5.0,71,0.00,,,-99.99,1.000000,,2013-07-27 12:43:00,
2013-07-27 06:52:00,51.0,42.0,-100.00,East,84,0.0,5.0,71,0.00,,,-99.99,1.000000,,2013-07-27 12:52:00,
2013-07-27 07:22:00,53.0,43.0,-100.00,East,89,0.0,2.0,69,0.00,,,0.00,16.000000,,2013-07-27 13:22:00,
2013-07-27 07:32:00,53.0,43.0,-100.00,East,89,0.0,2.0,69,0.00,,,0.00,16.000000,,2013-07-27 13:32:00,
2013-07-27 07:44:00,53.0,43.0,-100.00,East,89,0.0,2.0,69,0.00,,,0.00,16.000000,,2013-07-27 13:44:00,
2013-07-27 07:53:00,53.0,43.0,-100.00,East,89,0.0,2.0,69,0.00,,,0.00,16.000000,,2013-07-27 13:53:00,
2013-07-27 07:54:00,65.0,46.0,-100.00,WNW,295,2.0,5.0,50,0.00,,,0.00,152.000000,,2013-07-27 13:54:00,
2013-07-27 08:22:00,65.0,46.0,-100.00,WNW,295,2.0,5.0,50,0.00,,,0.00,152.000000,,2013-07-27 14:22:00,
2013-07-27 08:32:00,65.0,46.0,-100.00,WNW,295,2.0,5.0,50,0.00,,,0.00,152.000000,,2013-07-27 14:32:00,
2013-07-27 08:44:00,65.0,46.0,-100.00,WNW,295,2.0,5.0,50,0.00,,,0.00,152.000000,,2013-07-27 14:44:00,
2013-07-27 09:22:00,69.0,44.0,-100.00,West,268,3.0,8.0,40,0.00,,,0.00,349.000000,,2013-07-27 15:22:00,
2013-07-27 09:33:00,69.0,44.0,-100.00,West,268,3.0,8.0,40,0.00,,,0.00,349.000000,,2013-07-27 15:33:00,
2013-07-27 09:44:00,69.0,44.0,-100.00,West,268,3.0,8.0,40,0.00,,,0.00,349.000000,,2013-07-27 15:44:00,
2013-07-27 09:53:00,69.0,44.0,-100.00,West,268,3.0,8.0,40,0.00,,,0.00,349.000000,,2013-07-27 15:53:00,
2013-07-27 10:22:00,71.0,43.0,-100.00,West,270,5.0,12.0,37,0.00,,,0.00,561.000000,,2013-07-27 16:22:00,
2013-07-27 10:33:00,71.0,43.0,-100.00,West,270,5.0,12.0,37,0.00,,,0.00,561.000000,,2013-07-27 16:33:00,
2013-07-27 10:43:00,71.0,43.0,-100.00,West,270,5.0,12.0,37,0.00,,,0.00,561.000000,,2013-07-27 16:43:00,
2013-07-27 10:53:00,71.0,43.0,-100.00,West,270,5.0,12.0,37,0.00,,,0.00,561.000000,,2013-07-27 16:53:00,
2013-07-27 11:32:00,75.0,45.0,-100.00,WSW,246,3.0,11.0,34,0.00,,,0.00,727.000000,,2013-07-27 17:32:00,
2013-07-27 11:43:00,75.0,45.0,-100.00,WSW,246,3.0,11.0,34,0.00,,,0.00,727.000000,,2013-07-27 17:43:00,
2013-07-27 11:53:00,75.0,45.0,-100.00,WSW,246,3.0,11.0,34,0.00,,,0.00,727.000000,,2013-07-27 17:53:00,
2013-07-27 12:22:00,76.0,44.0,-100.00,WNW,297,5.0,12.0,32,0.00,,,0.00,855.000000,,2013-07-27 18:22:00,
2013-07-27 12:33:00,76.0,44.0,-100.00,WNW,297,5.0,12.0,32,0.00,,,0.00,855.000000,,2013-07-27 18:33:00,
2013-07-27 12:42:00,76.0,44.0,-100.00,WNW,297,5.0,12.0,32,0.00,,,0.00,855.000000,,2013-07-27 18:42:00,
2013-07-27 12:53:00,76.0,44.0,-100.00,WNW,297,5.0,12.0,32,0.00,,,0.00,855.000000,,2013-07-27 18:53:00,
2013-07-27 13:22:00,79.0,44.0,-100.00,West,277,7.0,17.0,29,0.00,,,0.00,940.000000,,2013-07-27 19:22:00,
2013-07-27 13:32:00,79.0,44.0,-100.00,West,277,7.0,17.0,29,0.00,,,0.00,940.000000,,2013-07-27 19:32:00,
2013-07-27 13:43:00,79.0,44.0,-100.00,West,277,7.0,17.0,29,0.00,,,0.00,940.000000,,2013-07-27 19:43:00,
2013-07-27 13:53:00,79.0,44.0,-100.00,West,277,7.0,17.0,29,0.00,,,0.00,940.000000,,2013-07-27 19:53:00,
2013-07-27 14:22:00,77.0,44.0,-100.00,West,266,6.0,19.0,31,0.00,,,0.00,763.000000,,2013-07-27 20:22:00,
2013-07-27 14:32:00,77.0,44.0,-100.00,West,266,6.0,19.0,31,0.00,,,0.00,763.000000,,2013-07-27 20:32:00,
2013-07-27 14:43:00,77.0,44.0,-100.00,West,266,6.0,19.0,31,0.00,,,0.00,763.000000,,2013-07-27 20:43:00,
2013-07-27 14:52:00,77.0,44.0,-100.00,West,266,6.0,19.0,31,0.00,,,0.00,763.000000,,2013-07-27 20:52:00,
2013-07-27 15:22:00,80.0,43.0,-100.00,West,268,8.0,21.0,27,0.00,,,0.00,926.000000,,2013-07-27 21:22:00,
2013-07-27 15:52:00,80.0,43.0,-100.00,West,268,8.0,21.0,27,0.00,,,0.00,926.000000,,2013-07-27 21:52:00,
2013-07-27 16:22:00,78.0,41.0,-100.00,West,263,8.0,18.0,27,0.00,,,0.00,755.000000,,2013-07-27 22:22:00,
2013-07-27 16:32:00,78.0,41.0,-100.00,West,263,8.0,18.0,27,0.00,,,0.00,755.000000,,2013-07-27 22:32:00,
2013-07-27 16:43:00,78.0,41.0,-100.00,West,263,8.0,18.0,27,0.00,,,0.00,755.000000,,2013-07-27 22:43:00,
2013-07-27 16:53:00,78.0,41.0,-100.00,West,263,8.0,18.0,27,0.00,,,0.00,755.000000,,2013-07-27 22:53:00,
2013-07-27 17:22:00,78.0,40.0,-100.00,West,273,5.0,16.0,26,0.00,,,0.00,590.000000,,2013-07-27 23:22:00,
2013-07-27 17:32:00,78.0,40.0,-100.00,West,273,5.0,16.0,26,0.00,,,0.00,590.000000,,2013-07-27 23:32:00,
2013-07-27 17:44:00,78.0,40.0,-100.00,West,273,5.0,16.0,26,0.00,,,0.00,590.000000,,2013-07-27 23:44:00,
2013-07-27 17:52:00,78.0,40.0,-100.00,West,273,5.0,16.0,26,0.00,,,0.00,590.000000,,2013-07-27 23:52:00,
2013-07-27 18:22:00,77.0,45.0,-100.00,WSW,254,4.0,12.0,32,0.00,,,0.00,410.000000,,2013-07-28 00:22:00,
2013-07-27 18:32:00,77.0,45.0,-100.00,WSW,254,4.0,12.0,32,0.00,,,0.00,410.000000,,2013-07-28 00:32:00,
2013-07-27 18:44:00,77.0,45.0,-100.00,WSW,254,4.0,12.0,32,0.00,,,0.00,410.000000,,2013-07-28 00:44:00,
2013-07-27 18:53:00,77.0,45.0,-100.00,WSW,254,4.0,12.0,32,0.00,,,0.00,410.000000,,2013-07-28 00:53:00,
2013-07-27 20:22:00,67.0,47.0,-100.00,West,267,4.0,7.0,48,0.00,,,0.06,65.000000,,2013-07-28 02:22:00,
2013-07-27 20:32:00,67.0,47.0,-100.00,West,267,4.0,7.0,48,0.00,,,0.06,65.000000,,2013-07-28 02:32:00,
2013-07-27 20:42:00,67.0,47.0,-100.00,West,267,4.0,7.0,48,0.00,,,0.06,65.000000,,2013-07-28 02:42:00,
2013-07-27 20:53:00,67.0,47.0,-100.00,West,267,4.0,7.0,48,0.00,,,0.06,65.000000,,2013-07-28 02:53:00,
2013-07-27 21:22:00,62.0,48.0,-100.00,NW,318,6.0,20.0,61,0.00,,,0.06,3.000000,,2013-07-28 03:22:00,
2013-07-27 21:32:00,62.0,48.0,-100.00,NW,318,6.0,20.0,61,0.00,,,0.06,3.000000,,2013-07-28 03:32:00,
2013-07-27 21:42:00,62.0,48.0,-100.00,NW,318,6.0,20.0,61,0.00,,,0.06,3.000000,,2013-07-28 03:42:00,
2013-07-27 21:53:00,62.0,48.0,-100.00,NW,318,6.0,20.0,61,0.00,,,0.06,3.000000,,2013-07-28 03:53:00,
2013-07-27 22:22:00,61.0,49.0,-100.00,WSW,252,1.0,7.0,65,0.00,,,0.06,1.000000,,2013-07-28 04:22:00,
2013-07-27 22:32:00,61.0,49.0,-100.00,WSW,252,1.0,7.0,65,0.00,,,0.06,1.000000,,2013-07-28 04:32:00,
2013-07-27 22:43:00,61.0,49.0,-100.00,WSW,252,1.0,7.0,65,0.00,,,0.06,1.000000,,2013-07-28 04:43:00,
2013-07-27 22:53:00,61.0,49.0,-100.00,WSW,252,1.0,7.0,65,0.00,,,0.06,1.000000,,2013-07-28 04:53:00,
2013-07-27 23:22:00,59.0,49.0,-100.00,South,189,1.0,6.0,70,0.00,,,0.06,1.000000,,2013-07-28 05:22:00,
2013-07-27 23:32:00,59.0,49.0,-100.00,South,189,1.0,6.0,70,0.00,,,0.06,1.000000,,2013-07-28 05:32:00,
2013-07-27 23:43:00,59.0,49.0,-100.00,South,189,1.0,6.0,70,0.00,,,0.06,1.000000,,2013-07-28 05:43:00,
2013-07-27 23:52:00,59.0,49.0,-100.00,South,189,1.0,6.0,70,0.00,,,0.06,1.000000,,2013-07-28 05:52:00,